sensor_id;sensor_type;location;lat;lon;timestamp;P1;durP1;ratioP1;P2;durP2;ratioP2
50161;SDS011;36061;48.116;11.612;2024-03-07T00:00:19;7.73;;;5.63;;
50161;SDS011;36061;48.116;11.612;2024-03-07T00:02:47;10.20;;;6.03;;
50161;SDS011;36061;48.116;11.612;2024-03-07T00:05:16;8.83;;;6.10;;
50161;SDS011;36061;48.116;11.612;2024-03-07T00:07:46;9.83;;;6.80;;
50161;SDS011;36061;48.116;11.612;2024-03-07T00:10:14;9.90;;;7.00;;
50161;SDS011;36061;48.116;11.612;2024-03-07T00:12:42;10.90;;;6.97;;
50161;SDS011;36061;48.116;11.612;2024-03-07T00:15:10;9.03;;;6.53;;
50161;SDS011;36061;48.116;11.612;2024-03-07T00:17:38;9.33;;;6.33;;
50161;SDS011;36061;48.116;11.612;2024-03-07T00:20:06;9.50;;;7.00;;
50161;SDS011;36061;48.116;11.612;2024-03-07T00:22:39;9.77;;;6.67;;
50161;SDS011;36061;48.116;11.612;2024-03-07T00:25:08;8.30;;;6.03;;
50161;SDS011;36061;48.116;11.612;2024-03-07T00:27:39;10.57;;;6.77;;
50161;SDS011;36061;48.116;11.612;2024-03-07T00:30:06;9.77;;;6.00;;
50161;SDS011;36061;48.116;11.612;2024-03-07T00:32:35;10.70;;;6.97;;
50161;SDS011;36061;48.116;11.612;2024-03-07T00:35:05;9.37;;;7.17;;
50161;SDS011;36061;48.116;11.612;2024-03-07T00:37:34;9.23;;;6.63;;
50161;SDS011;36061;48.116;11.612;2024-03-07T00:40:01;8.80;;;6.53;;
50161;SDS011;36061;48.116;11.612;2024-03-07T00:42:30;12.27;;;7.70;;
50161;SDS011;36061;48.116;11.612;2024-03-07T00:44:58;10.17;;;7.23;;
50161;SDS011;36061;48.116;11.612;2024-03-07T00:47:25;11.17;;;7.93;;
50161;SDS011;36061;48.116;11.612;2024-03-07T00:49:53;10.57;;;6.67;;
50161;SDS011;36061;48.116;11.612;2024-03-07T00:52:21;14.60;;;8.23;;
50161;SDS011;36061;48.116;11.612;2024-03-07T00:54:48;11.70;;;7.93;;
50161;SDS011;36061;48.116;11.612;2024-03-07T00:57:15;13.17;;;8.30;;
50161;SDS011;36061;48.116;11.612;2024-03-07T00:59:44;11.80;;;7.47;;
50161;SDS011;36061;48.116;11.612;2024-03-07T01:02:11;12.87;;;8.43;;
50161;SDS011;36061;48.116;11.612;2024-03-07T01:04:40;15.57;;;8.37;;
50161;SDS011;36061;48.116;11.612;2024-03-07T01:07:08;13.40;;;8.63;;
50161;SDS011;36061;48.116;11.612;2024-03-07T01:09:35;15.67;;;8.70;;
50161;SDS011;36061;48.116;11.612;2024-03-07T01:12:03;14.27;;;8.27;;
50161;SDS011;36061;48.116;11.612;2024-03-07T01:14:31;13.83;;;8.53;;
50161;SDS011;36061;48.116;11.612;2024-03-07T01:17:00;17.07;;;9.07;;
50161;SDS011;36061;48.116;11.612;2024-03-07T01:19:27;15.63;;;9.23;;
50161;SDS011;36061;48.116;11.612;2024-03-07T01:21:55;17.33;;;9.23;;
50161;SDS011;36061;48.116;11.612;2024-03-07T01:24:22;15.50;;;9.37;;
50161;SDS011;36061;48.116;11.612;2024-03-07T01:26:50;15.97;;;9.47;;
50161;SDS011;36061;48.116;11.612;2024-03-07T01:29:18;14.77;;;8.83;;
50161;SDS011;36061;48.116;11.612;2024-03-07T01:31:46;17.47;;;9.30;;
50161;SDS011;36061;48.116;11.612;2024-03-07T01:34:16;17.60;;;9.83;;
50161;SDS011;36061;48.116;11.612;2024-03-07T01:36:43;18.87;;;9.63;;
50161;SDS011;36061;48.116;11.612;2024-03-07T01:39:10;17.00;;;9.80;;
50161;SDS011;36061;48.116;11.612;2024-03-07T01:41:38;16.00;;;9.33;;
50161;SDS011;36061;48.116;11.612;2024-03-07T01:44:06;15.07;;;9.20;;
50161;SDS011;36061;48.116;11.612;2024-03-07T01:46:33;15.30;;;9.53;;
50161;SDS011;36061;48.116;11.612;2024-03-07T01:49:01;17.97;;;10.30;;
50161;SDS011;36061;48.116;11.612;2024-03-07T01:51:29;15.63;;;9.47;;
50161;SDS011;36061;48.116;11.612;2024-03-07T01:53:57;16.13;;;10.10;;
50161;SDS011;36061;48.116;11.612;2024-03-07T01:56:25;18.73;;;10.60;;
50161;SDS011;36061;48.116;11.612;2024-03-07T01:58:52;18.50;;;11.03;;
50161;SDS011;36061;48.116;11.612;2024-03-07T02:01:22;16.23;;;9.93;;
50161;SDS011;36061;48.116;11.612;2024-03-07T02:03:49;19.10;;;10.10;;
50161;SDS011;36061;48.116;11.612;2024-03-07T02:06:17;16.70;;;10.17;;
50161;SDS011;36061;48.116;11.612;2024-03-07T02:08:45;17.47;;;10.40;;
50161;SDS011;36061;48.116;11.612;2024-03-07T02:11:13;18.07;;;10.83;;
50161;SDS011;36061;48.116;11.612;2024-03-07T02:13:40;19.90;;;8.93;;
50161;SDS011;36061;48.116;11.612;2024-03-07T02:16:08;19.20;;;11.00;;
50161;SDS011;36061;48.116;11.612;2024-03-07T02:18:35;19.90;;;11.53;;
50161;SDS011;36061;48.116;11.612;2024-03-07T02:21:07;19.37;;;10.67;;
50161;SDS011;36061;48.116;11.612;2024-03-07T02:23:37;20.43;;;11.80;;
50161;SDS011;36061;48.116;11.612;2024-03-07T02:26:04;20.60;;;12.17;;
50161;SDS011;36061;48.116;11.612;2024-03-07T02:28:32;21.83;;;11.70;;
50161;SDS011;36061;48.116;11.612;2024-03-07T02:30:59;21.90;;;11.63;;
50161;SDS011;36061;48.116;11.612;2024-03-07T02:33:26;20.70;;;11.47;;
50161;SDS011;36061;48.116;11.612;2024-03-07T02:35:55;19.10;;;11.20;;
50161;SDS011;36061;48.116;11.612;2024-03-07T02:38:23;19.40;;;12.07;;
50161;SDS011;36061;48.116;11.612;2024-03-07T02:40:51;21.20;;;11.80;;
50161;SDS011;36061;48.116;11.612;2024-03-07T02:43:18;21.13;;;12.30;;
50161;SDS011;36061;48.116;11.612;2024-03-07T02:45:46;23.23;;;12.27;;
50161;SDS011;36061;48.116;11.612;2024-03-07T02:48:15;24.77;;;13.20;;
50161;SDS011;36061;48.116;11.612;2024-03-07T02:50:43;20.40;;;12.53;;
50161;SDS011;36061;48.116;11.612;2024-03-07T02:53:11;21.93;;;12.10;;
50161;SDS011;36061;48.116;11.612;2024-03-07T02:55:39;22.23;;;12.03;;
50161;SDS011;36061;48.116;11.612;2024-03-07T02:58:07;21.83;;;13.17;;
50161;SDS011;36061;48.116;11.612;2024-03-07T03:00:34;20.03;;;11.37;;
50161;SDS011;36061;48.116;11.612;2024-03-07T03:03:02;21.93;;;12.87;;
50161;SDS011;36061;48.116;11.612;2024-03-07T03:05:30;23.53;;;12.87;;
50161;SDS011;36061;48.116;11.612;2024-03-07T03:07:57;22.20;;;13.47;;
50161;SDS011;36061;48.116;11.612;2024-03-07T03:10:25;22.73;;;13.50;;
50161;SDS011;36061;48.116;11.612;2024-03-07T03:12:55;27.33;;;14.87;;
50161;SDS011;36061;48.116;11.612;2024-03-07T03:15:24;26.37;;;15.07;;
50161;SDS011;36061;48.116;11.612;2024-03-07T03:17:52;26.63;;;15.70;;
50161;SDS011;36061;48.116;11.612;2024-03-07T03:20:19;29.30;;;16.70;;
50161;SDS011;36061;48.116;11.612;2024-03-07T03:22:59;26.10;;;16.07;;
50161;SDS011;36061;48.116;11.612;2024-03-07T03:25:28;32.47;;;16.80;;
50161;SDS011;36061;48.116;11.612;2024-03-07T03:28:01;31.77;;;16.77;;
50161;SDS011;36061;48.116;11.612;2024-03-07T03:30:29;29.57;;;16.93;;
50161;SDS011;36061;48.116;11.612;2024-03-07T03:32:58;26.13;;;15.90;;
50161;SDS011;36061;48.116;11.612;2024-03-07T03:35:25;27.97;;;16.67;;
50161;SDS011;36061;48.116;11.612;2024-03-07T03:37:53;26.70;;;16.03;;
50161;SDS011;36061;48.116;11.612;2024-03-07T03:40:20;26.97;;;15.33;;
50161;SDS011;36061;48.116;11.612;2024-03-07T03:42:47;29.40;;;15.67;;
50161;SDS011;36061;48.116;11.612;2024-03-07T03:45:16;25.97;;;14.90;;
50161;SDS011;36061;48.116;11.612;2024-03-07T03:47:44;26.13;;;15.63;;
50161;SDS011;36061;48.116;11.612;2024-03-07T03:50:12;29.23;;;16.47;;
50161;SDS011;36061;48.116;11.612;2024-03-07T03:52:40;31.33;;;16.30;;
50161;SDS011;36061;48.116;11.612;2024-03-07T03:55:07;29.33;;;15.70;;
50161;SDS011;36061;48.116;11.612;2024-03-07T03:57:37;32.40;;;16.53;;
50161;SDS011;36061;48.116;11.612;2024-03-07T04:00:05;30.83;;;16.67;;
50161;SDS011;36061;48.116;11.612;2024-03-07T04:02:39;28.20;;;16.93;;
50161;SDS011;36061;48.116;11.612;2024-03-07T04:05:07;33.43;;;16.77;;
50161;SDS011;36061;48.116;11.612;2024-03-07T04:07:36;26.77;;;15.90;;
50161;SDS011;36061;48.116;11.612;2024-03-07T04:10:04;26.57;;;17.30;;
50161;SDS011;36061;48.116;11.612;2024-03-07T04:12:33;32.80;;;16.80;;
50161;SDS011;36061;48.116;11.612;2024-03-07T04:15:00;30.03;;;16.93;;
50161;SDS011;36061;48.116;11.612;2024-03-07T04:17:29;33.53;;;17.40;;
50161;SDS011;36061;48.116;11.612;2024-03-07T04:20:00;29.60;;;16.57;;
50161;SDS011;36061;48.116;11.612;2024-03-07T04:22:30;29.93;;;17.57;;
50161;SDS011;36061;48.116;11.612;2024-03-07T04:24:58;32.23;;;17.83;;
50161;SDS011;36061;48.116;11.612;2024-03-07T04:27:26;30.50;;;16.80;;
50161;SDS011;36061;48.116;11.612;2024-03-07T04:29:54;30.03;;;17.67;;
50161;SDS011;36061;48.116;11.612;2024-03-07T04:32:21;36.90;;;19.20;;
50161;SDS011;36061;48.116;11.612;2024-03-07T04:34:49;33.33;;;17.90;;
50161;SDS011;36061;48.116;11.612;2024-03-07T04:37:18;29.73;;;16.43;;
50161;SDS011;36061;48.116;11.612;2024-03-07T04:39:47;33.47;;;17.27;;
50161;SDS011;36061;48.116;11.612;2024-03-07T04:42:14;31.47;;;16.70;;
50161;SDS011;36061;48.116;11.612;2024-03-07T04:44:42;30.93;;;16.90;;
50161;SDS011;36061;48.116;11.612;2024-03-07T04:47:09;29.00;;;17.03;;
50161;SDS011;36061;48.116;11.612;2024-03-07T04:49:37;30.70;;;17.70;;
50161;SDS011;36061;48.116;11.612;2024-03-07T04:52:06;32.13;;;18.10;;
50161;SDS011;36061;48.116;11.612;2024-03-07T04:54:34;28.67;;;16.97;;
50161;SDS011;36061;48.116;11.612;2024-03-07T04:57:02;29.47;;;17.50;;
50161;SDS011;36061;48.116;11.612;2024-03-07T04:59:31;29.93;;;17.77;;
50161;SDS011;36061;48.116;11.612;2024-03-07T05:01:58;33.73;;;18.60;;
50161;SDS011;36061;48.116;11.612;2024-03-07T05:04:26;33.00;;;17.67;;
50161;SDS011;36061;48.116;11.612;2024-03-07T05:06:54;32.30;;;18.63;;
50161;SDS011;36061;48.116;11.612;2024-03-07T05:09:23;31.90;;;18.47;;
50161;SDS011;36061;48.116;11.612;2024-03-07T05:11:55;34.30;;;18.70;;
50161;SDS011;36061;48.116;11.612;2024-03-07T05:14:23;33.73;;;18.80;;
50161;SDS011;36061;48.116;11.612;2024-03-07T05:16:50;33.67;;;19.30;;
50161;SDS011;36061;48.116;11.612;2024-03-07T05:19:30;31.23;;;18.63;;
50161;SDS011;36061;48.116;11.612;2024-03-07T05:21:58;32.33;;;18.07;;
50161;SDS011;36061;48.116;11.612;2024-03-07T05:24:26;29.67;;;16.77;;
50161;SDS011;36061;48.116;11.612;2024-03-07T05:26:53;31.63;;;18.57;;
50161;SDS011;36061;48.116;11.612;2024-03-07T05:29:22;33.60;;;19.67;;
50161;SDS011;36061;48.116;11.612;2024-03-07T05:31:50;31.53;;;18.60;;
50161;SDS011;36061;48.116;11.612;2024-03-07T05:34:17;29.73;;;17.27;;
50161;SDS011;36061;48.116;11.612;2024-03-07T05:36:45;31.50;;;18.20;;
50161;SDS011;36061;48.116;11.612;2024-03-07T05:39:13;30.30;;;17.97;;
50161;SDS011;36061;48.116;11.612;2024-03-07T05:41:41;40.03;;;19.53;;
50161;SDS011;36061;48.116;11.612;2024-03-07T05:44:11;36.70;;;19.17;;
50161;SDS011;36061;48.116;11.612;2024-03-07T05:46:39;35.60;;;18.60;;
50161;SDS011;36061;48.116;11.612;2024-03-07T05:49:12;31.97;;;18.67;;
50161;SDS011;36061;48.116;11.612;2024-03-07T05:51:39;32.77;;;18.77;;
50161;SDS011;36061;48.116;11.612;2024-03-07T05:54:10;34.83;;;19.77;;
50161;SDS011;36061;48.116;11.612;2024-03-07T05:56:38;36.97;;;19.00;;
50161;SDS011;36061;48.116;11.612;2024-03-07T05:59:06;38.13;;;20.43;;
50161;SDS011;36061;48.116;11.612;2024-03-07T06:01:36;36.67;;;19.57;;
50161;SDS011;36061;48.116;11.612;2024-03-07T06:04:05;37.60;;;19.33;;
50161;SDS011;36061;48.116;11.612;2024-03-07T06:06:34;34.27;;;20.23;;
50161;SDS011;36061;48.116;11.612;2024-03-07T06:09:02;35.67;;;20.30;;
50161;SDS011;36061;48.116;11.612;2024-03-07T06:11:32;36.17;;;18.73;;
50161;SDS011;36061;48.116;11.612;2024-03-07T06:14:01;31.37;;;18.00;;
50161;SDS011;36061;48.116;11.612;2024-03-07T06:16:29;34.33;;;18.73;;
50161;SDS011;36061;48.116;11.612;2024-03-07T06:18:59;39.40;;;20.00;;
50161;SDS011;36061;48.116;11.612;2024-03-07T06:21:28;35.93;;;19.60;;
50161;SDS011;36061;48.116;11.612;2024-03-07T06:23:56;37.57;;;20.33;;
50161;SDS011;36061;48.116;11.612;2024-03-07T06:26:26;34.63;;;19.70;;
50161;SDS011;36061;48.116;11.612;2024-03-07T06:29:03;36.00;;;18.80;;
50161;SDS011;36061;48.116;11.612;2024-03-07T06:31:31;33.80;;;19.33;;
50161;SDS011;36061;48.116;11.612;2024-03-07T06:34:01;36.00;;;19.43;;
50161;SDS011;36061;48.116;11.612;2024-03-07T06:36:29;34.63;;;20.57;;
50161;SDS011;36061;48.116;11.612;2024-03-07T06:38:58;37.87;;;19.60;;
50161;SDS011;36061;48.116;11.612;2024-03-07T06:41:25;33.70;;;19.73;;
50161;SDS011;36061;48.116;11.612;2024-03-07T06:43:52;34.60;;;18.87;;
50161;SDS011;36061;48.116;11.612;2024-03-07T06:46:20;35.40;;;18.10;;
50161;SDS011;36061;48.116;11.612;2024-03-07T06:48:49;34.30;;;20.13;;
50161;SDS011;36061;48.116;11.612;2024-03-07T06:51:18;37.03;;;20.17;;
50161;SDS011;36061;48.116;11.612;2024-03-07T06:53:45;39.40;;;20.13;;
50161;SDS011;36061;48.116;11.612;2024-03-07T06:56:13;34.63;;;19.20;;
50161;SDS011;36061;48.116;11.612;2024-03-07T06:58:41;40.70;;;21.47;;
50161;SDS011;36061;48.116;11.612;2024-03-07T07:01:10;34.37;;;19.50;;
50161;SDS011;36061;48.116;11.612;2024-03-07T07:03:40;34.17;;;19.03;;
50161;SDS011;36061;48.116;11.612;2024-03-07T07:06:09;35.17;;;19.63;;
50161;SDS011;36061;48.116;11.612;2024-03-07T07:08:38;36.87;;;19.03;;
50161;SDS011;36061;48.116;11.612;2024-03-07T07:11:06;34.17;;;20.47;;
50161;SDS011;36061;48.116;11.612;2024-03-07T07:13:33;37.23;;;20.07;;
50161;SDS011;36061;48.116;11.612;2024-03-07T07:16:02;33.57;;;18.97;;
50161;SDS011;36061;48.116;11.612;2024-03-07T07:18:29;33.73;;;19.43;;
50161;SDS011;36061;48.116;11.612;2024-03-07T07:20:57;34.57;;;19.00;;
50161;SDS011;36061;48.116;11.612;2024-03-07T07:23:25;35.37;;;19.70;;
50161;SDS011;36061;48.116;11.612;2024-03-07T07:25:54;38.60;;;19.27;;
50161;SDS011;36061;48.116;11.612;2024-03-07T07:28:21;34.00;;;18.87;;
50161;SDS011;36061;48.116;11.612;2024-03-07T07:30:49;31.20;;;18.50;;
50161;SDS011;36061;48.116;11.612;2024-03-07T07:33:17;37.03;;;18.80;;
50161;SDS011;36061;48.116;11.612;2024-03-07T07:35:44;33.23;;;18.70;;
50161;SDS011;36061;48.116;11.612;2024-03-07T07:38:12;36.20;;;19.73;;
50161;SDS011;36061;48.116;11.612;2024-03-07T07:40:40;35.17;;;18.67;;
50161;SDS011;36061;48.116;11.612;2024-03-07T07:43:09;34.33;;;19.13;;
50161;SDS011;36061;48.116;11.612;2024-03-07T07:45:39;31.47;;;16.90;;
50161;SDS011;36061;48.116;11.612;2024-03-07T07:48:07;36.57;;;20.63;;
50161;SDS011;36061;48.116;11.612;2024-03-07T07:50:37;33.83;;;19.60;;
50161;SDS011;36061;48.116;11.612;2024-03-07T07:53:04;34.50;;;20.17;;
50161;SDS011;36061;48.116;11.612;2024-03-07T07:55:34;35.57;;;19.10;;
50161;SDS011;36061;48.116;11.612;2024-03-07T07:58:02;29.90;;;17.77;;
50161;SDS011;36061;48.116;11.612;2024-03-07T08:00:31;36.40;;;20.10;;
50161;SDS011;36061;48.116;11.612;2024-03-07T08:03:00;34.60;;;19.10;;
50161;SDS011;36061;48.116;11.612;2024-03-07T08:05:29;32.53;;;19.17;;
50161;SDS011;36061;48.116;11.612;2024-03-07T08:07:58;36.17;;;19.03;;
50161;SDS011;36061;48.116;11.612;2024-03-07T08:10:28;31.43;;;18.40;;
50161;SDS011;36061;48.116;11.612;2024-03-07T08:12:56;40.70;;;20.17;;
50161;SDS011;36061;48.116;11.612;2024-03-07T08:15:24;35.47;;;19.67;;
50161;SDS011;36061;48.116;11.612;2024-03-07T08:17:54;34.47;;;17.30;;
50161;SDS011;36061;48.116;11.612;2024-03-07T08:20:23;39.13;;;20.13;;
50161;SDS011;36061;48.116;11.612;2024-03-07T08:22:51;32.73;;;19.87;;
50161;SDS011;36061;48.116;11.612;2024-03-07T08:25:20;35.37;;;19.13;;
50161;SDS011;36061;48.116;11.612;2024-03-07T08:27:48;35.23;;;20.00;;
50161;SDS011;36061;48.116;11.612;2024-03-07T08:30:16;31.73;;;18.27;;
50161;SDS011;36061;48.116;11.612;2024-03-07T08:32:44;33.07;;;17.40;;
50161;SDS011;36061;48.116;11.612;2024-03-07T08:35:14;32.50;;;18.63;;
50161;SDS011;36061;48.116;11.612;2024-03-07T08:37:42;35.43;;;20.23;;
50161;SDS011;36061;48.116;11.612;2024-03-07T08:40:10;35.60;;;19.07;;
50161;SDS011;36061;48.116;11.612;2024-03-07T08:42:44;32.10;;;18.00;;
50161;SDS011;36061;48.116;11.612;2024-03-07T08:45:13;33.50;;;18.43;;
50161;SDS011;36061;48.116;11.612;2024-03-07T08:47:44;35.57;;;20.17;;
50161;SDS011;36061;48.116;11.612;2024-03-07T08:50:13;36.60;;;18.43;;
50161;SDS011;36061;48.116;11.612;2024-03-07T08:52:43;28.80;;;17.27;;
50161;SDS011;36061;48.116;11.612;2024-03-07T08:55:12;33.33;;;18.27;;
50161;SDS011;36061;48.116;11.612;2024-03-07T08:57:40;34.37;;;18.47;;
50161;SDS011;36061;48.116;11.612;2024-03-07T09:00:09;32.00;;;18.03;;
50161;SDS011;36061;48.116;11.612;2024-03-07T09:02:38;34.87;;;18.53;;
50161;SDS011;36061;48.116;11.612;2024-03-07T09:05:05;33.93;;;18.50;;
50161;SDS011;36061;48.116;11.612;2024-03-07T09:07:37;31.40;;;17.90;;
50161;SDS011;36061;48.116;11.612;2024-03-07T09:10:04;32.47;;;18.57;;
50161;SDS011;36061;48.116;11.612;2024-03-07T09:12:33;36.03;;;18.07;;
50161;SDS011;36061;48.116;11.612;2024-03-07T09:15:01;39.40;;;20.37;;
50161;SDS011;36061;48.116;11.612;2024-03-07T09:17:29;34.10;;;19.47;;
50161;SDS011;36061;48.116;11.612;2024-03-07T09:19:57;42.17;;;18.17;;
50161;SDS011;36061;48.116;11.612;2024-03-07T09:22:24;39.07;;;18.83;;
50161;SDS011;36061;48.116;11.612;2024-03-07T09:24:53;31.37;;;18.03;;
50161;SDS011;36061;48.116;11.612;2024-03-07T09:27:20;31.90;;;17.67;;
50161;SDS011;36061;48.116;11.612;2024-03-07T09:29:47;30.50;;;18.50;;
50161;SDS011;36061;48.116;11.612;2024-03-07T09:32:16;35.37;;;17.93;;
50161;SDS011;36061;48.116;11.612;2024-03-07T09:34:43;31.37;;;16.67;;
50161;SDS011;36061;48.116;11.612;2024-03-07T09:37:11;31.93;;;18.40;;
50161;SDS011;36061;48.116;11.612;2024-03-07T09:39:39;31.90;;;18.37;;
50161;SDS011;36061;48.116;11.612;2024-03-07T09:42:08;29.53;;;19.27;;
50161;SDS011;36061;48.116;11.612;2024-03-07T09:44:36;32.33;;;18.67;;
50161;SDS011;36061;48.116;11.612;2024-03-07T09:47:07;32.63;;;18.10;;
50161;SDS011;36061;48.116;11.612;2024-03-07T09:49:36;41.57;;;22.37;;
50161;SDS011;36061;48.116;11.612;2024-03-07T09:52:06;28.80;;;18.20;;
50161;SDS011;36061;48.116;11.612;2024-03-07T09:54:37;35.27;;;18.43;;
50161;SDS011;36061;48.116;11.612;2024-03-07T09:57:06;34.60;;;18.10;;
50161;SDS011;36061;48.116;11.612;2024-03-07T09:59:35;29.30;;;16.63;;
50161;SDS011;36061;48.116;11.612;2024-03-07T10:02:04;35.33;;;18.17;;
50161;SDS011;36061;48.116;11.612;2024-03-07T10:04:37;30.77;;;18.07;;
50161;SDS011;36061;48.116;11.612;2024-03-07T10:07:06;29.90;;;18.13;;
50161;SDS011;36061;48.116;11.612;2024-03-07T10:09:37;32.10;;;17.30;;
50161;SDS011;36061;48.116;11.612;2024-03-07T10:12:06;29.00;;;17.30;;
50161;SDS011;36061;48.116;11.612;2024-03-07T10:14:38;33.97;;;18.13;;
50161;SDS011;36061;48.116;11.612;2024-03-07T10:17:06;69.20;;;35.53;;
50161;SDS011;36061;48.116;11.612;2024-03-07T10:19:35;39.63;;;22.70;;
50161;SDS011;36061;48.116;11.612;2024-03-07T10:22:02;33.70;;;18.23;;
50161;SDS011;36061;48.116;11.612;2024-03-07T10:24:32;33.37;;;18.10;;
50161;SDS011;36061;48.116;11.612;2024-03-07T10:27:00;27.30;;;17.33;;
50161;SDS011;36061;48.116;11.612;2024-03-07T10:29:30;31.30;;;17.63;;
50161;SDS011;36061;48.116;11.612;2024-03-07T10:31:57;31.87;;;17.07;;
50161;SDS011;36061;48.116;11.612;2024-03-07T10:34:25;29.63;;;16.43;;
50161;SDS011;36061;48.116;11.612;2024-03-07T10:36:57;29.60;;;17.07;;
50161;SDS011;36061;48.116;11.612;2024-03-07T10:39:29;29.97;;;16.73;;
50161;SDS011;36061;48.116;11.612;2024-03-07T10:41:57;29.00;;;16.70;;
50161;SDS011;36061;48.116;11.612;2024-03-07T10:44:32;29.23;;;16.77;;
50161;SDS011;36061;48.116;11.612;2024-03-07T10:47:07;27.70;;;16.07;;
50161;SDS011;36061;48.116;11.612;2024-03-07T10:49:38;23.27;;;13.93;;
50161;SDS011;36061;48.116;11.612;2024-03-07T10:52:38;28.33;;;15.10;;
50161;SDS011;36061;48.116;11.612;2024-03-07T10:55:08;28.13;;;14.07;;
50161;SDS011;36061;48.116;11.612;2024-03-07T10:57:46;21.57;;;13.87;;
50161;SDS011;36061;48.116;11.612;2024-03-07T11:00:20;27.70;;;15.80;;
50161;SDS011;36061;48.116;11.612;2024-03-07T11:03:01;26.57;;;15.10;;
50161;SDS011;36061;48.116;11.612;2024-03-07T11:05:32;23.33;;;14.27;;
50161;SDS011;36061;48.116;11.612;2024-03-07T11:08:00;26.33;;;14.63;;
50161;SDS011;36061;48.116;11.612;2024-03-07T11:10:33;25.03;;;14.60;;
50161;SDS011;36061;48.116;11.612;2024-03-07T11:13:02;25.87;;;14.57;;
50161;SDS011;36061;48.116;11.612;2024-03-07T11:15:32;25.13;;;14.50;;
50161;SDS011;36061;48.116;11.612;2024-03-07T11:18:00;21.80;;;13.77;;
50161;SDS011;36061;48.116;11.612;2024-03-07T11:20:33;24.10;;;14.10;;
50161;SDS011;36061;48.116;11.612;2024-03-07T11:23:05;25.33;;;14.50;;
50161;SDS011;36061;48.116;11.612;2024-03-07T11:25:54;25.13;;;14.83;;
50161;SDS011;36061;48.116;11.612;2024-03-07T11:28:28;28.20;;;15.70;;
50161;SDS011;36061;48.116;11.612;2024-03-07T11:31:12;24.33;;;14.17;;
50161;SDS011;36061;48.116;11.612;2024-03-07T11:33:40;27.73;;;14.97;;
50161;SDS011;36061;48.116;11.612;2024-03-07T11:36:09;24.20;;;14.50;;
50161;SDS011;36061;48.116;11.612;2024-03-07T11:38:38;27.50;;;15.80;;
50161;SDS011;36061;48.116;11.612;2024-03-07T11:41:10;26.70;;;14.83;;
50161;SDS011;36061;48.116;11.612;2024-03-07T11:43:39;23.83;;;14.00;;
50161;SDS011;36061;48.116;11.612;2024-03-07T11:46:08;24.07;;;14.63;;
50161;SDS011;36061;48.116;11.612;2024-03-07T11:48:42;25.87;;;13.83;;
50161;SDS011;36061;48.116;11.612;2024-03-07T11:51:12;24.30;;;13.83;;
50161;SDS011;36061;48.116;11.612;2024-03-07T11:53:40;28.57;;;14.63;;
50161;SDS011;36061;48.116;11.612;2024-03-07T11:56:08;25.20;;;14.63;;
50161;SDS011;36061;48.116;11.612;2024-03-07T11:58:41;25.13;;;13.77;;
50161;SDS011;36061;48.116;11.612;2024-03-07T12:01:19;23.13;;;14.33;;
50161;SDS011;36061;48.116;11.612;2024-03-07T12:03:50;27.73;;;14.43;;
50161;SDS011;36061;48.116;11.612;2024-03-07T12:06:18;25.43;;;15.17;;
50161;SDS011;36061;48.116;11.612;2024-03-07T12:08:46;23.43;;;14.00;;
50161;SDS011;36061;48.116;11.612;2024-03-07T12:11:15;23.10;;;13.57;;
50161;SDS011;36061;48.116;11.612;2024-03-07T12:13:43;24.97;;;14.50;;
50161;SDS011;36061;48.116;11.612;2024-03-07T12:16:12;21.90;;;13.07;;
50161;SDS011;36061;48.116;11.612;2024-03-07T12:18:41;22.50;;;13.00;;
50161;SDS011;36061;48.116;11.612;2024-03-07T12:21:09;21.50;;;13.03;;
50161;SDS011;36061;48.116;11.612;2024-03-07T12:23:38;27.97;;;14.00;;
50161;SDS011;36061;48.116;11.612;2024-03-07T12:26:06;26.27;;;15.00;;
50161;SDS011;36061;48.116;11.612;2024-03-07T12:28:36;30.57;;;16.30;;
50161;SDS011;36061;48.116;11.612;2024-03-07T12:31:04;27.70;;;15.80;;
50161;SDS011;36061;48.116;11.612;2024-03-07T12:33:42;24.27;;;14.37;;
50161;SDS011;36061;48.116;11.612;2024-03-07T12:36:12;28.53;;;14.43;;
50161;SDS011;36061;48.116;11.612;2024-03-07T12:38:40;28.30;;;15.53;;
50161;SDS011;36061;48.116;11.612;2024-03-07T12:41:08;28.87;;;16.33;;
50161;SDS011;36061;48.116;11.612;2024-03-07T12:43:40;27.83;;;15.43;;
50161;SDS011;36061;48.116;11.612;2024-03-07T12:46:10;27.00;;;15.33;;
50161;SDS011;36061;48.116;11.612;2024-03-07T12:48:39;28.33;;;15.03;;
50161;SDS011;36061;48.116;11.612;2024-03-07T12:51:08;24.23;;;14.57;;
50161;SDS011;36061;48.116;11.612;2024-03-07T12:53:39;23.80;;;14.03;;
50161;SDS011;36061;48.116;11.612;2024-03-07T12:56:08;28.07;;;14.47;;
50161;SDS011;36061;48.116;11.612;2024-03-07T12:58:35;25.10;;;14.47;;
50161;SDS011;36061;48.116;11.612;2024-03-07T13:01:03;25.27;;;13.67;;
50161;SDS011;36061;48.116;11.612;2024-03-07T13:03:32;23.73;;;13.67;;
50161;SDS011;36061;48.116;11.612;2024-03-07T13:06:00;22.57;;;12.63;;
50161;SDS011;36061;48.116;11.612;2024-03-07T13:08:31;23.53;;;13.10;;
50161;SDS011;36061;48.116;11.612;2024-03-07T13:10:59;21.50;;;12.37;;
50161;SDS011;36061;48.116;11.612;2024-03-07T13:13:27;24.43;;;14.40;;
50161;SDS011;36061;48.116;11.612;2024-03-07T13:15:56;24.70;;;13.60;;
50161;SDS011;36061;48.116;11.612;2024-03-07T13:18:23;25.23;;;14.37;;
50161;SDS011;36061;48.116;11.612;2024-03-07T13:20:51;24.63;;;13.00;;
50161;SDS011;36061;48.116;11.612;2024-03-07T13:23:18;28.17;;;13.90;;
50161;SDS011;36061;48.116;11.612;2024-03-07T13:25:47;26.47;;;14.77;;
50161;SDS011;36061;48.116;11.612;2024-03-07T13:28:15;26.20;;;14.50;;
50161;SDS011;36061;48.116;11.612;2024-03-07T13:30:43;29.53;;;16.10;;
50161;SDS011;36061;48.116;11.612;2024-03-07T13:33:14;25.57;;;15.03;;
50161;SDS011;36061;48.116;11.612;2024-03-07T13:35:41;31.00;;;14.80;;
50161;SDS011;36061;48.116;11.612;2024-03-07T13:38:09;24.53;;;13.87;;
50161;SDS011;36061;48.116;11.612;2024-03-07T13:40:36;31.30;;;14.37;;
50161;SDS011;36061;48.116;11.612;2024-03-07T13:43:06;25.43;;;13.53;;
50161;SDS011;36061;48.116;11.612;2024-03-07T13:45:34;25.87;;;14.13;;
50161;SDS011;36061;48.116;11.612;2024-03-07T13:48:05;29.97;;;14.43;;
50161;SDS011;36061;48.116;11.612;2024-03-07T13:50:34;20.30;;;12.57;;
50161;SDS011;36061;48.116;11.612;2024-03-07T13:53:03;22.13;;;13.10;;
50161;SDS011;36061;48.116;11.612;2024-03-07T13:55:52;20.63;;;12.60;;
50161;SDS011;36061;48.116;11.612;2024-03-07T13:58:34;23.53;;;13.20;;
50161;SDS011;36061;48.116;11.612;2024-03-07T14:01:17;19.53;;;12.43;;
50161;SDS011;36061;48.116;11.612;2024-03-07T14:04:26;19.50;;;11.73;;
50161;SDS011;36061;48.116;11.612;2024-03-07T14:07:25;21.63;;;13.30;;
50161;SDS011;36061;48.116;11.612;2024-03-07T14:10:21;21.93;;;12.73;;
50161;SDS011;36061;48.116;11.612;2024-03-07T14:13:18;24.03;;;12.10;;
50161;SDS011;36061;48.116;11.612;2024-03-07T14:22:44;25.13;;;13.60;;
50161;SDS011;36061;48.116;11.612;2024-03-07T14:28:32;26.30;;;14.77;;
50161;SDS011;36061;48.116;11.612;2024-03-07T14:31:26;43.00;;;25.10;;
50161;SDS011;36061;48.116;11.612;2024-03-07T14:34:03;28.17;;;14.33;;